Time;durP1;ratioP1;P1;durP2;ratioP2;P2;SDS_P1;SDS_P2;PMS_P1;PMS_P2;Temp;Humidity;BMP_temperature;BMP_pressure;BME280_temperature;BME280_humidity;BME280_pressure;Samples;Min_cycle;Max_cycle;Signal;HPM_P1;HPM_P2
2022/01/02 00:00:03;;;;;;;25.55;14.38;;;;;;;5.68;100.00;98201.00;4931193;29;20047;-89
2022/01/02 00:02:29;;;;;;;17.33;12.50;;;;;;;5.53;100.00;98193.53;4920377;29;20522;-89
2022/01/02 00:05:10;;;;;;;28.50;17.65;;;;;;;5.62;100.00;98217.97;4910548;29;20058;-89
2022/01/02 00:07:57;;;;;;;32.53;16.67;;;;;;;5.67;100.00;98213.38;4921964;29;20491;-89
2022/01/02 00:10:23;;;;;;;17.65;13.32;;;;;;;5.61;100.00;98184.41;4906587;29;20182;-88
2022/01/02 00:12:57;;;;;;;24.52;13.38;;;;;;;5.62;100.00;98195.88;4915239;29;20035;-89
2022/01/02 00:15:22;;;;;;;24.45;12.65;;;;;;;5.62;100.00;98203.84;4919873;29;20475;-89
2022/01/02 00:17:57;;;;;;;16.40;9.32;;;;;;;5.75;100.00;98206.03;4915530;29;20044;-87
2022/01/02 00:20:35;;;;;;;12.80;9.02;;;;;;;5.65;100.00;98183.38;4930715;29;20559;-86
2022/01/02 00:23:06;;;;;;;25.48;11.38;;;;;;;5.82;100.00;98227.94;4929841;29;20075;-89
2022/01/02 00:25:38;;;;;;;12.65;6.97;;;;;;;5.64;100.00;98218.78;4935758;29;20522;-88
2022/01/02 00:28:05;;;;;;;14.07;7.82;;;;;;;5.55;100.00;98213.78;4941798;29;20035;-89
2022/01/02 00:30:32;;;;;;;9.60;7.50;;;;;;;5.44;100.00;98206.13;4921369;29;20507;-89
2022/01/02 00:33:00;;;;;;;11.18;6.43;;;;;;;5.43;100.00;98208.84;4929930;29;20040;-89
2022/01/02 00:35:25;;;;;;;11.10;6.10;;;;;;;5.41;100.00;98216.84;4941728;29;20106;-89
2022/01/02 00:37:51;;;;;;;10.50;5.15;;;;;;;5.34;100.00;98215.31;4927278;29;20043;-89
2022/01/02 00:40:16;;;;;;;25.35;6.25;;;;;;;5.31;100.00;98217.19;4925154;29;20033;-88
2022/01/02 00:42:43;;;;;;;16.52;8.57;;;;;;;5.32;100.00;98218.94;4912690;29;20039;-87
2022/01/02 00:45:28;;;;;;;6.25;4.05;;;;;;;5.41;100.00;98226.63;4940225;29;20031;-88
2022/01/02 00:48:05;;;;;;;16.02;7.68;;;;;;;5.43;100.00;98230.94;4941979;29;20054;-89
2022/01/02 00:50:36;;;;;;;32.28;12.45;;;;;;;5.31;100.00;98220.72;4916887;29;20038;-89
2022/01/02 00:53:03;;;;;;;18.23;9.52;;;;;;;5.28;100.00;98222.59;4931869;29;20516;-89
2022/01/02 00:55:31;;;;;;;23.85;8.98;;;;;;;5.35;100.00;98216.19;4925490;29;20500;-88
2022/01/02 00:58:05;;;;;;;20.15;8.63;;;;;;;5.36;100.00;98240.00;4932864;29;20032;-90
2022/01/02 01:00:31;;;;;;;18.70;9.10;;;;;;;5.29;100.00;98222.53;4933614;29;20122;-88
2022/01/02 01:03:08;;;;;;;15.60;11.57;;;;;;;5.26;100.00;98229.72;4935787;29;20043;-87
2022/01/02 01:05:35;;;;;;;23.73;11.88;;;;;;;5.23;100.00;98238.63;4931616;29;20063;-88
2022/01/02 01:08:05;;;;;;;15.57;7.10;;;;;;;5.20;100.00;98229.91;4916390;29;20036;-89
2022/01/02 01:10:33;;;;;;;20.33;9.25;;;;;;;5.22;100.00;98214.81;4930703;29;20137;-89
2022/01/02 01:13:01;;;;;;;15.98;8.85;;;;;;;5.28;100.00;98226.13;4914120;29;20047;-88
2022/01/02 01:15:28;;;;;;;21.13;10.55;;;;;;;5.23;100.00;98221.88;4932948;29;20434;-89
2022/01/02 01:17:56;;;;;;;22.05;7.43;;;;;;;5.16;100.00;98225.59;4928828;29;20561;-88
2022/01/02 01:20:26;;;;;;;22.95;10.43;;;;;;;5.24;100.00;98250.09;4936632;29;20491;-89
2022/01/02 01:22:52;;;;;;;12.48;8.73;;;;;;;5.08;100.00;98223.16;4916699;29;20047;-90
2022/01/02 01:25:19;;;;;;;21.90;10.13;;;;;;;5.22;100.00;98238.69;4912289;29;20035;-88
2022/01/02 01:27:45;;;;;;;19.15;11.77;;;;;;;5.11;100.00;98224.84;4923161;29;20039;-88
2022/01/02 01:30:12;;;;;;;21.27;11.70;;;;;;;5.21;100.00;98239.59;4936368;29;20512;-88
2022/01/02 01:32:38;;;;;;;19.33;11.70;;;;;;;5.18;100.00;98237.03;4941516;29;20062;-88
2022/01/02 01:35:05;;;;;;;22.90;9.70;;;;;;;5.10;100.00;98237.25;4936580;29;20657;-89
2022/01/02 01:37:31;;;;;;;27.42;9.93;;;;;;;4.99;100.00;98225.22;4935495;29;20443;-89
2022/01/02 01:39:57;;;;;;;12.80;6.40;;;;;;;5.11;100.00;98243.41;4937351;29;20604;-89
2022/01/02 01:42:43;;;;;;;16.15;9.00;;;;;;;4.95;100.00;98236.84;4942028;29;20105;-88
2022/01/02 01:47:54;;;;;;;15.63;7.60;;;;;;;4.63;100.00;98230.66;4930979;29;20516;-88
2022/01/02 01:50:22;;;;;;;8.18;6.00;;;;;;;4.76;100.00;98247.97;4921904;29;20499;-88
2022/01/02 01:52:48;;;;;;;15.57;6.07;;;;;;;4.64;100.00;98235.06;4933678;29;20067;-88
2022/01/02 01:55:16;;;;;;;6.18;4.80;;;;;;;4.74;100.00;98246.25;4938907;29;20031;-88
2022/01/02 01:57:42;;;;;;;15.32;9.50;;;;;;;4.72;100.00;98248.94;4941743;29;20639;-88
2022/01/02 02:00:11;;;;;;;12.13;7.13;;;;;;;4.65;100.00;98244.72;4937277;29;20059;-87
2022/01/02 02:02:37;;;;;;;6.43;5.10;;;;;;;4.57;100.00;98236.13;4922949;29;20099;-88
2022/01/02 02:05:03;;;;;;;14.80;6.50;;;;;;;4.56;100.00;98233.50;4932481;29;20035;-90
2022/01/02 02:07:37;;;;;;;10.93;7.07;;;;;;;4.54;100.00;98228.25;4939350;29;20035;-89
2022/01/02 02:12:30;;;;;;;22.92;9.88;;;;;;;4.52;100.00;98227.44;4930885;29;20043;-88
2022/01/02 02:14:56;;;;;;;13.35;8.35;;;;;;;4.47;100.00;98234.63;4935611;29;20035;-88
2022/01/02 02:17:22;;;;;;;16.15;8.63;;;;;;;4.35;100.00;98235.81;4928580;29;20166;-87
2022/01/02 02:19:49;;;;;;;13.20;7.55;;;;;;;4.37;100.00;98238.41;4921842;29;20039;-88
2022/01/02 02:22:15;;;;;;;15.23;7.30;;;;;;;4.30;100.00;98231.56;4917547;29;20044;-89
2022/01/02 02:24:41;;;;;;;9.57;5.95;;;;;;;4.27;100.00;98236.94;4930347;29;20484;-89
2022/01/02 02:27:14;;;;;;;7.65;6.20;;;;;;;4.26;100.00;98238.72;4922173;29;20040;-88
2022/01/02 02:29:39;;;;;;;9.73;5.85;;;;;;;4.10;100.00;98228.53;4932304;28;20075;-88
2022/01/02 02:32:05;;;;;;;6.40;5.40;;;;;;;4.21;100.00;98234.44;4913373;29;20047;-89
2022/01/02 02:34:31;;;;;;;6.10;4.88;;;;;;;4.34;100.00;98247.31;4935721;29;20035;-88
2022/01/02 02:36:56;;;;;;;30.95;6.88;;;;;;;4.49;100.00;98259.28;4926210;29;20043;-89
2022/01/02 02:39:22;;;;;;;10.50;7.55;;;;;;;4.38;100.00;98237.50;4920756;29;20039;-89
2022/01/02 02:41:47;;;;;;;14.23;6.80;;;;;;;4.51;100.00;98241.59;4933536;29;20031;-89
2022/01/02 02:44:28;;;;;;;9.10;7.93;;;;;;;4.64;100.00;98256.25;4933130;29;20046;-88
2022/01/02 02:49:41;;;;;;;13.35;9.07;;;;;;;4.68;100.00;98254.34;4942459;29;20147;-89
2022/01/02 02:52:15;;;;;;;11.23;8.20;;;;;;;4.80;100.00;98270.78;4921074;29;20032;-89
2022/01/02 02:54:42;;;;;;;10.27;7.13;;;;;;;4.66;100.00;98230.56;4937091;29;20032;-89
2022/01/02 02:57:12;;;;;;;10.30;6.43;;;;;;;4.80;100.00;98254.88;4915048;29;20038;-89
2022/01/02 02:59:38;;;;;;;14.13;8.40;;;;;;;4.89;100.00;98254.63;4937078;29;20526;-89
2022/01/02 03:02:04;;;;;;;17.40;9.93;;;;;;;4.90;100.00;98244.91;4913052;29;20040;-89
2022/01/02 03:04:30;;;;;;;15.90;8.57;;;;;;;4.95;100.00;98252.75;4928870;29;20484;-89
2022/01/02 03:06:56;;;;;;;18.77;9.93;;;;;;;5.04;100.00;98257.78;4928805;29;20042;-87
2022/01/02 03:09:47;;;;;;;14.93;8.05;;;;;;;5.15;100.00;98266.28;4915087;29;20062;-87
2022/01/02 03:12:12;;;;;;;15.00;8.57;;;;;;;4.98;100.00;98272.09;4939741;29;20035;-87
2022/01/02 03:14:38;;;;;;;14.38;6.88;;;;;;;4.96;100.00;98259.75;4932471;29;20043;-88
2022/01/02 03:17:04;;;;;;;12.18;8.98;;;;;;;4.86;100.00;98264.47;4935666;29;20066;-87
2022/01/02 03:19:34;;;;;;;12.50;8.65;;;;;;;4.87;100.00;98277.66;4927228;29;20035;-87
2022/01/02 03:22:00;;;;;;;15.48;9.27;;;;;;;4.76;100.00;98287.72;4920142;29;20066;-89
2022/01/02 03:24:25;;;;;;;16.30;7.93;;;;;;;4.75;100.00;98283.31;4908975;29;20189;-89
2022/01/02 03:26:51;;;;;;;33.08;10.27;;;;;;;4.88;100.00;98287.38;4920243;29;20039;-89
2022/01/02 03:29:17;;;;;;;10.95;5.65;;;;;;;4.77;100.00;98285.91;4932532;29;20039;-89
2022/01/02 03:31:42;;;;;;;11.40;6.07;;;;;;;4.81;100.00;98298.16;4924860;29;20074;-88
2022/01/02 03:34:08;;;;;;;13.57;6.63;;;;;;;4.72;100.00;98286.03;4934977;29;20164;-88
2022/01/02 03:36:34;;;;;;;8.95;5.65;;;;;;;4.76;100.00;98290.34;4926590;29;20184;-88
2022/01/02 03:38:59;;;;;;;10.48;6.30;;;;;;;4.60;100.00;98266.94;4907405;29;20048;-88
2022/01/02 03:41:25;;;;;;;9.38;6.30;;;;;;;4.77;100.00;98299.16;4910222;29;20130;-88
2022/01/02 03:43:51;;;;;;;12.45;6.10;;;;;;;4.76;100.00;98293.00;4937104;29;20035;-87
2022/01/02 03:46:16;;;;;;;11.82;5.70;;;;;;;4.65;100.00;98279.16;4907959;29;20427;-87
2022/01/02 03:48:42;;;;;;;10.20;5.93;;;;;;;4.82;100.00;98290.19;4928862;29;20043;-88
2022/01/02 03:51:07;;;;;;;22.63;6.93;;;;;;;4.84;100.00;98282.19;4918743;29;20051;-88
2022/01/02 03:53:34;;;;;;;13.60;7.18;;;;;;;4.87;100.00;98282.97;4939443;29;20058;-88
2022/01/02 03:55:59;;;;;;;13.57;7.50;;;;;;;5.06;100.00;98303.66;4921545;29;20054;-89
2022/01/02 03:58:25;;;;;;;7.43;5.38;;;;;;;4.93;100.00;98272.19;4936930;29;20035;-88
2022/01/02 04:00:50;;;;;;;8.10;6.70;;;;;;;5.10;100.00;98300.03;4917077;29;20046;-89
2022/01/02 04:03:16;;;;;;;10.18;6.93;;;;;;;5.08;100.00;98301.81;4937656;29;20498;-89
2022/01/02 04:05:43;;;;;;;20.02;13.07;;;;;;;5.16;100.00;98315.75;4914539;29;20051;-90
2022/01/02 04:08:09;;;;;;;13.50;7.90;;;;;;;5.08;100.00;98299.19;4925260;29;20047;-89
2022/01/02 04:10:35;;;;;;;14.90;7.35;;;;;;;5.20;100.00;98312.13;4924348;29;20051;-90
2022/01/02 04:13:00;;;;;;;16.35;8.32;;;;;;;5.14;100.00;98313.13;4938415;29;20027;-90
2022/01/02 04:15:26;;;;;;;8.05;6.45;;;;;;;5.25;100.00;98316.38;4923335;29;20151;-90
2022/01/02 04:17:52;;;;;;;11.40;5.95;;;;;;;5.26;100.00;98314.59;4918312;29;20099;-89
2022/01/02 04:20:17;;;;;;;14.93;10.15;;;;;;;5.29;100.00;98312.69;4921518;29;20504;-88
2022/01/02 04:22:43;;;;;;;18.20;9.15;;;;;;;5.37;100.00;98326.63;4930391;29;20126;-90
2022/01/02 04:25:10;;;;;;;13.43;7.35;;;;;;;5.22;100.00;98307.63;4937184;29;20044;-89
2022/01/02 04:27:36;;;;;;;10.52;7.22;;;;;;;5.26;100.00;98320.75;4924838;29;20051;-90
2022/01/02 04:30:04;;;;;;;28.83;10.00;;;;;;;5.26;100.00;98311.94;4933185;29;20060;-88
2022/01/02 04:32:29;;;;;;;19.33;8.93;;;;;;;5.30;100.00;98318.88;4926826;29;20075;-90
2022/01/02 04:34:55;;;;;;;13.70;8.35;;;;;;;5.39;100.00;98314.19;4942355;28;20034;-88
2022/01/02 04:37:21;;;;;;;11.60;7.75;;;;;;;5.45;100.00;98310.47;4930398;29;20063;-89
2022/01/02 04:39:46;;;;;;;5.78;4.93;;;;;;;5.45;100.00;98313.13;4917300;29;20055;-90
2022/01/02 04:42:12;;;;;;;14.18;8.93;;;;;;;5.45;100.00;98326.38;4936350;28;20581;-89
2022/01/02 04:44:38;;;;;;;11.13;8.23;;;;;;;5.26;100.00;98317.25;4945437;29;20179;-88
2022/01/02 04:47:04;;;;;;;13.20;9.30;;;;;;;5.21;100.00;98312.06;4921191;29;20099;-88
2022/01/02 04:49:29;;;;;;;10.00;7.40;;;;;;;5.18;100.00;98298.88;4935001;29;20437;-89
2022/01/02 04:51:55;;;;;;;17.35;9.85;;;;;;;5.31;100.00;98315.31;4926796;29;20035;-89
2022/01/02 04:54:21;;;;;;;13.80;8.05;;;;;;;5.37;100.00;98320.44;4927230;29;20067;-91
2022/01/02 04:56:47;;;;;;;8.48;6.25;;;;;;;5.31;100.00;98320.63;4922080;29;20079;-89
2022/01/02 04:59:13;;;;;;;9.43;7.50;;;;;;;5.23;100.00;98309.38;4936978;29;20039;-89
2022/01/02 05:01:38;;;;;;;11.05;8.10;;;;;;;5.22;100.00;98307.63;4913346;29;20047;-88
2022/01/02 05:04:04;;;;;;;17.30;7.18;;;;;;;5.09;100.00;98298.28;4924683;29;20089;-89
2022/01/02 05:06:29;;;;;;;12.23;5.57;;;;;;;5.13;100.00;98310.53;4943216;29;20046;-87
2022/01/02 05:08:55;;;;;;;6.88;4.80;;;;;;;5.23;100.00;98335.91;4928200;29;20047;-89
2022/01/02 05:11:21;;;;;;;17.77;7.13;;;;;;;5.21;100.00;98340.34;4927172;29;20099;-88
2022/01/02 05:13:46;;;;;;;11.65;7.57;;;;;;;5.03;100.00;98312.56;4930328;29;20082;-89
2022/01/02 05:16:12;;;;;;;14.00;9.60;;;;;;;4.95;100.00;98313.72;4930857;29;20452;-89
2022/01/02 05:18:37;;;;;;;15.32;8.80;;;;;;;4.93;100.00;98311.09;4912963;29;20043;-88
2022/01/02 05:21:03;;;;;;;19.05;9.65;;;;;;;4.86;100.00;98320.13;4909168;29;20717;-88
2022/01/02 05:23:29;;;;;;;11.52;7.93;;;;;;;4.77;100.00;98318.56;4914996;29;20050;-88
2022/01/02 05:25:55;;;;;;;15.20;10.18;;;;;;;4.79;100.00;98327.38;4941965;29;20043;-89
2022/01/02 05:28:21;;;;;;;13.13;7.28;;;;;;;4.76;100.00;98335.41;4942155;29;20094;-88
2022/01/02 05:30:46;;;;;;;10.35;7.55;;;;;;;4.68;100.00;98328.53;4925432;29;20054;-89
2022/01/02 05:33:12;;;;;;;15.02;8.40;;;;;;;4.60;100.00;98323.47;4925805;29;20137;-89
2022/01/02 05:35:38;;;;;;;17.90;9.05;;;;;;;4.60;100.00;98330.53;4935944;29;20071;-89
2022/01/02 05:38:03;;;;;;;11.65;7.90;;;;;;;4.59;100.00;98321.72;4922223;29;20484;-88
2022/01/02 05:40:31;;;;;;;15.23;6.85;;;;;;;4.62;100.00;98328.69;4926551;29;20200;-90
2022/01/02 05:43:06;;;;;;;18.15;7.38;;;;;;;4.59;100.00;98340.25;4923344;29;20040;-89
2022/01/02 05:45:32;;;;;;;15.75;7.03;;;;;;;4.46;100.00;98327.38;4923134;29;20059;-90
2022/01/02 05:47:58;;;;;;;15.23;9.45;;;;;;;4.38;100.00;98314.31;4930182;29;20467;-90
2022/01/02 05:50:24;;;;;;;19.83;7.45;;;;;;;4.45;100.00;98352.13;4915674;29;20515;-91
2022/01/02 05:52:50;;;;;;;16.42;8.98;;;;;;;4.40;100.00;98351.38;4912686;29;20126;-89
2022/01/02 05:55:16;;;;;;;15.10;10.00;;;;;;;4.24;100.00;98329.69;4907228;29;20059;-88
2022/01/02 05:57:42;;;;;;;10.73;7.82;;;;;;;4.23;100.00;98326.16;4925529;29;20419;-88
2022/01/02 06:00:11;;;;;;;9.18;8.02;;;;;;;4.24;100.00;98332.34;4927900;29;20038;-88
2022/01/02 06:02:37;;;;;;;15.13;8.02;;;;;;;4.14;100.00;98320.22;4938922;29;20567;-88
2022/01/02 06:05:04;;;;;;;22.42;8.90;;;;;;;4.03;100.00;98317.81;4922895;29;20062;-89
2022/01/02 06:07:34;;;;;;;13.15;8.98;;;;;;;4.04;100.00;98337.22;4906454;29;20452;-89
2022/01/02 06:10:01;;;;;;;13.27;9.75;;;;;;;4.14;100.00;98349.34;4921779;29;20046;-87
2022/01/02 06:12:26;;;;;;;12.05;8.90;;;;;;;4.03;100.00;98338.16;4923106;29;20075;-87
2022/01/02 06:15:06;;;;;;;21.85;13.32;;;;;;;3.84;100.00;98317.38;4923486;29;20043;-88
2022/01/02 06:17:34;;;;;;;27.20;11.68;;;;;;;4.01;100.00;98350.53;4947895;29;20035;-91
2022/01/02 06:20:00;;;;;;;30.75;13.65;;;;;;;3.74;100.00;98326.44;4925661;29;20041;-89
2022/01/02 06:22:26;;;;;;;20.27;11.30;;;;;;;3.96;100.00;98358.59;4923486;29;20035;-89
2022/01/02 06:24:51;;;;;;;37.45;13.32;;;;;;;4.06;100.00;98375.13;4924427;29;20075;-89
2022/01/02 06:27:17;;;;;;;15.15;11.35;;;;;;;4.00;100.00;98362.03;4907675;29;20036;-90
2022/01/02 06:29:45;;;;;;;19.98;9.93;;;;;;;3.77;100.00;98331.66;4923681;29;20412;-88
2022/01/02 06:32:11;;;;;;;21.63;11.02;;;;;;;4.14;100.00;98389.03;4924009;29;20035;-89
2022/01/02 06:34:37;;;;;;;17.45;11.65;;;;;;;3.94;100.00;98363.03;4908029;29;20122;-90
2022/01/02 06:37:02;;;;;;;20.70;12.60;;;;;;;3.99;100.00;98362.94;4908985;29;20476;-90
2022/01/02 06:39:28;;;;;;;26.10;11.82;;;;;;;4.24;100.00;98385.28;4923982;29;20066;-89
2022/01/02 06:41:53;;;;;;;12.75;9.23;;;;;;;4.16;100.00;98366.03;4909999;29;20036;-88
2022/01/02 06:44:21;;;;;;;15.23;12.32;;;;;;;4.12;100.00;98370.53;4907296;29;20036;-90
2022/01/02 06:46:47;;;;;;;20.00;13.98;;;;;;;4.14;100.00;98370.50;4907903;29;20043;-88
2022/01/02 06:49:12;;;;;;;235.50;125.25;;;;;;;4.35;100.00;98389.41;4923281;29;20496;-89
2022/01/02 06:51:38;;;;;;;217.50;107.88;;;;;;;4.63;100.00;98399.34;4924074;29;20083;-89
2022/01/02 06:54:04;;;;;;;214.32;111.28;;;;;;;4.66;100.00;98397.50;4906649;29;20031;-89
2022/01/02 06:56:29;;;;;;;179.52;92.90;;;;;;;4.68;100.00;98402.72;4906457;29;20500;-90
2022/01/02 06:58:55;;;;;;;145.23;77.07;;;;;;;4.57;100.00;98388.88;4922315;29;20031;-90
2022/01/02 07:01:20;;;;;;;136.45;70.60;;;;;;;4.82;100.00;98422.69;4909350;29;20046;-87
2022/01/02 07:03:46;;;;;;;166.23;82.55;;;;;;;4.93;100.00;98399.44;4940648;29;20085;-88
2022/01/02 07:06:12;;;;;;;122.18;63.20;;;;;;;4.99;100.00;98400.16;4934693;29;20039;-89
2022/01/02 07:08:38;;;;;;;137.32;68.05;;;;;;;5.08;100.00;98391.97;4925659;29;20215;-88
2022/01/02 07:11:05;;;;;;;272.23;135.40;;;;;;;5.37;100.00;98426.56;4941118;29;20035;-89
2022/01/02 07:13:31;;;;;;;161.45;84.20;;;;;;;5.38;100.00;98413.22;4925050;29;20043;-87
2022/01/02 07:15:56;;;;;;;171.20;86.78;;;;;;;5.48;100.00;98414.72;4940210;29;20093;-88
2022/01/02 07:18:22;;;;;;;168.88;85.28;;;;;;;5.82;100.00;98445.63;4940417;29;20046;-89
2022/01/02 07:20:47;;;;;;;169.35;88.95;;;;;;;5.85;100.00;98441.13;4940989;29;20570;-89
2022/01/02 07:23:13;;;;;;;221.93;114.40;;;;;;;5.92;100.00;98421.47;4916296;29;20642;-88
2022/01/02 07:25:38;;;;;;;291.42;156.85;;;;;;;5.89;100.00;98402.09;4922496;29;20047;-89
2022/01/02 07:28:04;;;;;;;249.73;140.40;;;;;;;6.04;100.00;98411.38;4907556;29;20047;-90
2022/01/02 07:30:30;;;;;;;232.55;130.82;;;;;;;6.23;100.00;98420.53;4922129;29;20047;-90
2022/01/02 07:33:01;;;;;;;239.32;128.35;;;;;;;6.30;100.00;98399.06;4922131;29;20027;-90
2022/01/02 07:35:31;;;;;;;262.48;148.27;;;;;;;6.74;100.00;98440.16;4923292;29;20102;-91
2022/01/02 07:37:57;;;;;;;238.90;136.50;;;;;;;7.38;100.00;98422.03;4923178;29;20032;-89
2022/01/02 07:40:24;;;;;;;282.15;164.82;;;;;;;8.13;100.00;98443.19;4907371;29;20055;-91
2022/01/02 07:42:50;;;;;;;257.88;147.45;;;;;;;9.73;94.71;98432.13;4923356;29;20491;-93
2022/01/02 07:45:19;;;;;;;256.88;145.00;;;;;;;9.97;89.49;98415.00;4924840;29;20028;-91
2022/01/02 07:47:46;;;;;;;258.55;147.25;;;;;;;10.07;87.01;98435.03;4922788;29;20111;-92
2022/01/02 07:50:11;;;;;;;295.63;160.35;;;;;;;10.07;87.57;98435.03;4923266;29;20412;-90
2022/01/02 07:52:37;;;;;;;320.23;177.38;;;;;;;10.41;85.56;98430.81;4921685;29;20032;-91
2022/01/02 07:55:03;;;;;;;355.67;205.45;;;;;;;11.07;81.46;98426.69;4923348;29;20039;-91
2022/01/02 07:57:29;;;;;;;336.85;203.15;;;;;;;12.75;74.13;98452.56;4923642;29;20455;-90
2022/01/02 07:59:54;;;;;;;359.60;216.10;;;;;;;13.34;68.39;98438.41;4906501;29;20040;-90
2022/01/02 08:02:20;;;;;;;352.42;215.88;;;;;;;13.94;66.42;98456.25;4924337;29;20047;-92
2022/01/02 08:04:45;;;;;;;344.80;220.27;;;;;;;13.85;65.14;98442.50;4924045;29;20531;-93
2022/01/02 08:07:11;;;;;;;251.80;157.07;;;;;;;13.27;67.12;98464.78;4925392;29;20472;-78
2022/01/02 08:09:37;;;;;;;232.60;140.60;;;;;;;13.41;67.39;98431.75;4929947;29;20078;-78
2022/01/02 08:12:03;;;;;;;234.85;146.15;;;;;;;14.42;64.63;98447.03;4948205;29;20027;-78
2022/01/02 08:14:28;;;;;;;245.43;155.45;;;;;;;15.05;61.09;98441.13;4932433;29;20091;-77
2022/01/02 08:16:54;;;;;;;211.98;128.43;;;;;;;15.59;58.76;98451.00;4914816;29;20063;-86
2022/01/02 08:19:20;;;;;;;228.38;144.93;;;;;;;16.53;55.66;98438.94;4933274;29;20090;-86
2022/01/02 08:21:46;;;;;;;197.05;125.13;;;;;;;17.13;54.11;98455.28;4911550;29;20040;-85
2022/01/02 08:24:12;;;;;;;127.80;80.70;;;;;;;17.23;52.68;98439.22;4931858;29;20046;-89
2022/01/02 08:26:37;;;;;;;103.50;66.22;;;;;;;17.28;52.41;98439.75;4917674;29;20058;-85
2022/01/02 08:29:03;;;;;;;100.68;64.65;;;;;;;17.82;51.86;98441.00;4912015;29;20079;-86
2022/01/02 08:31:35;;;;;;;108.15;67.25;;;;;;;17.69;50.87;98455.59;4927876;29;20066;-87
2022/01/02 08:34:01;;;;;;;116.18;73.55;;;;;;;18.33;49.88;98438.78;4932228;29;20035;-87
2022/01/02 08:36:26;;;;;;;134.07;85.85;;;;;;;18.79;49.09;98440.56;4910016;29;20640;-75
2022/01/02 08:38:52;;;;;;;147.65;95.50;;;;;;;18.68;48.71;98444.13;4910151;29;20043;-76
2022/01/02 08:41:18;;;;;;;127.60;85.05;;;;;;;19.22;48.05;98427.94;4908703;29;20110;-76
2022/01/02 08:43:43;;;;;;;115.07;77.53;;;;;;;19.24;47.32;98442.22;4926815;29;20622;-74
2022/01/02 08:46:10;;;;;;;121.32;77.88;;;;;;;19.26;47.27;98439.38;4928400;29;20574;-75
2022/01/02 08:48:35;;;;;;;112.57;71.38;;;;;;;19.50;47.84;98441.94;4933003;29;20595;-75
2022/01/02 08:51:01;;;;;;;117.68;81.10;;;;;;;19.05;48.19;98447.44;4933875;29;21812;-77
2022/01/02 08:53:32;;;;;;;133.18;89.50;;;;;;;19.37;48.07;98439.38;4930659;29;20499;-75
2022/01/02 08:55:58;;;;;;;134.75;92.53;;;;;;;19.67;46.98;98441.38;4946343;28;20141;-76
2022/01/02 08:58:23;;;;;;;158.18;109.53;;;;;;;19.95;46.03;98436.19;4940328;29;20090;-76
2022/01/02 09:00:49;;;;;;;146.70;104.03;;;;;;;20.05;45.64;98429.97;4930359;29;20028;-76
2022/01/02 09:03:15;;;;;;;130.20;91.10;;;;;;;20.14;45.33;98430.03;4928628;29;20046;-75
2022/01/02 09:05:41;;;;;;;137.77;95.85;;;;;;;20.27;44.98;98427.16;4927847;29;20031;-78
2022/01/02 09:08:07;;;;;;;144.70;100.88;;;;;;;20.01;45.57;98440.22;4928461;29;20114;-77
2022/01/02 09:10:33;;;;;;;153.98;105.40;;;;;;;20.31;45.19;98423.16;4921253;29;20059;-77
2022/01/02 09:12:59;;;;;;;148.93;99.57;;;;;;;19.91;46.31;98413.00;4934568;29;20039;-76
2022/01/02 09:15:24;;;;;;;109.00;75.97;;;;;;;20.22;45.49;98415.78;4927948;29;20047;-77
2022/01/02 09:17:50;;;;;;;85.20;59.22;;;;;;;20.25;44.74;98410.94;4930773;29;20043;-77
2022/01/02 09:20:17;;;;;;;91.35;62.17;;;;;;;19.41;46.75;98406.44;4923806;29;20043;-77
2022/01/02 09:22:43;;;;;;;93.43;61.20;;;;;;;20.29;45.40;98398.84;4934607;29;20510;-78
2022/01/02 09:25:10;;;;;;;101.45;64.32;;;;;;;21.13;43.62;98396.78;4929828;29;20463;-77
2022/01/02 09:27:36;;;;;;;99.65;65.70;;;;;;;22.33;41.65;98380.84;4943532;29;20407;-77
2022/01/02 09:30:06;;;;;;;80.38;57.75;;;;;;;22.43;41.00;98377.06;4928848;29;20046;-77
2022/01/02 09:32:34;;;;;;;79.95;56.15;;;;;;;21.93;41.49;98373.75;4933660;29;20035;-78
2022/01/02 09:35:01;;;;;;;66.85;48.30;;;;;;;21.72;42.34;98364.00;4911738;29;20043;-87
2022/01/02 09:37:27;;;;;;;55.88;39.72;;;;;;;21.36;42.86;98365.56;4914407;29;20067;-83
2022/01/02 09:39:52;;;;;;;53.25;38.38;;;;;;;20.17;45.21;98369.13;4924510;29;20039;-76
2022/01/02 09:42:18;;;;;;;53.35;38.08;;;;;;;21.03;44.30;98375.81;4933446;29;20050;-77
2022/01/02 09:44:43;;;;;;;58.05;41.47;;;;;;;21.57;42.69;98366.28;4927766;29;20059;-76
2022/01/02 09:47:10;;;;;;;67.70;48.15;;;;;;;22.20;41.34;98336.69;4937993;29;20420;-83
2022/01/02 09:49:39;;;;;;;88.82;59.60;;;;;;;23.22;39.75;98348.25;4933365;29;20508;-79
2022/01/02 09:52:05;;;;;;;74.38;47.85;;;;;;;23.57;39.19;98330.19;4937136;29;20194;-82
2022/01/02 09:54:34;;;;;;;57.58;40.55;;;;;;;23.72;39.38;98337.69;4920052;29;20031;-77
2022/01/02 09:57:01;;;;;;;49.72;33.90;;;;;;;24.08;38.75;98330.28;4920146;29;20046;-78
2022/01/02 09:59:26;;;;;;;36.50;27.00;;;;;;;24.41;38.32;98333.25;4915050;29;20503;-78
2022/01/02 10:01:52;;;;;;;45.20;30.23;;;;;;;24.04;38.98;98333.50;4926311;29;20048;-82
2022/01/02 10:04:33;;;;;;;46.85;31.55;;;;;;;25.10;36.95;98327.59;4915783;29;20464;-78
2022/01/02 10:06:58;;;;;;;44.85;30.90;;;;;;;25.51;35.87;98306.63;4944823;29;20035;-79
2022/01/02 10:09:39;;;;;;;42.38;29.55;;;;;;;25.21;36.56;98319.91;4942742;29;20050;-79
2022/01/02 10:12:30;;;;;;;43.92;31.83;;;;;;;24.61;38.13;98321.88;4929596;29;20039;-82
2022/01/02 10:15:12;;;;;;;42.90;32.30;;;;;;;24.45;38.09;98316.34;4913745;29;20134;-83
2022/01/02 10:18:09;;;;;;;45.88;35.28;;;;;;;24.79;37.08;98308.13;4912448;29;20127;-78
2022/01/02 10:20:38;;;;;;;66.38;45.63;;;;;;;24.83;36.78;98300.44;4924403;29;20441;-80
2022/01/02 10:23:17;;;;;;;56.97;41.53;;;;;;;24.84;36.75;98294.81;4931226;29;20063;-76
2022/01/02 10:25:50;;;;;;;60.00;41.15;;;;;;;25.78;35.74;98276.13;4935397;29;20083;-76
2022/01/02 10:28:34;;;;;;;50.30;37.83;;;;;;;25.88;35.92;98271.31;4928077;29;20039;-80
2022/01/02 10:31:15;;;;;;;53.55;40.08;;;;;;;25.55;36.31;98275.13;4930035;29;20047;-81
2022/01/02 10:34:01;;;;;;;56.78;42.17;;;;;;;25.25;36.30;98272.00;4929802;29;20041;-76
2022/01/02 10:36:31;;;;;;;70.43;50.78;;;;;;;25.81;35.06;98262.06;4931627;29;20474;-77
2022/01/02 10:39:14;;;;;;;54.20;41.70;;;;;;;25.57;35.54;98242.91;4904087;29;20071;-75
2022/01/02 10:41:48;;;;;;;63.88;47.72;;;;;;;25.58;35.46;98247.38;4934966;29;20046;-75
2022/01/02 10:44:29;;;;;;;62.03;46.90;;;;;;;25.97;34.96;98248.34;4931285;29;20470;-75
2022/01/02 10:47:07;;;;;;;68.20;49.80;;;;;;;25.90;35.42;98254.72;4925781;29;20423;-76
2022/01/02 10:50:03;;;;;;;63.97;44.83;;;;;;;25.41;35.94;98243.72;4930606;29;20051;-73
2022/01/02 10:52:34;;;;;;;75.60;56.17;;;;;;;25.62;35.73;98246.88;4911056;29;20039;-76
2022/01/02 10:55:18;;;;;;;77.70;55.80;;;;;;;25.41;35.79;98245.66;4943391;29;20040;-75
2022/01/02 10:57:49;;;;;;;60.10;46.08;;;;;;;25.69;35.03;98236.03;4939526;29;20064;-76
2022/01/02 11:00:16;;;;;;;46.97;34.90;;;;;;;25.90;34.18;98228.16;4912727;29;20122;-75
2022/01/02 11:02:41;;;;;;;49.90;36.45;;;;;;;26.59;34.11;98229.31;4945854;29;20121;-86
2022/01/02 11:05:10;;;;;;;65.93;44.90;;;;;;;27.33;32.49;98231.47;4928075;29;20146;-80
2022/01/02 11:07:49;;;;;;;75.57;56.05;;;;;;;27.23;33.06;98223.44;4927939;29;20051;-88
2022/01/02 11:10:17;;;;;;;90.22;65.35;;;;;;;27.30;32.62;98224.44;4925484;29;20487;-79
2022/01/02 11:12:44;;;;;;;78.60;55.17;;;;;;;27.77;31.85;98213.25;4920022;29;20504;-85
2022/01/02 11:15:12;;;;;;;80.00;56.90;;;;;;;28.10;31.57;98215.66;4929941;29;20041;-87
2022/01/02 11:17:38;;;;;;;55.92;41.80;;;;;;;28.43;31.83;98212.34;4924821;29;20075;-87
2022/01/02 11:20:09;;;;;;;28.25;20.48;;;;;;;27.32;32.08;98202.25;4909277;29;20447;-76
2022/01/02 11:23:15;;;;;;;32.20;23.15;;;;;;;26.46;34.48;98213.41;4908523;29;20047;-79
2022/01/02 11:26:13;;;;;;;41.67;30.63;;;;;;;27.32;32.51;98200.38;4934321;29;20038;-87
2022/01/02 11:28:47;;;;;;;39.17;27.83;;;;;;;27.33;32.45;98206.72;4919796;29;20035;-81
2022/01/02 11:31:26;;;;;;;28.17;20.48;;;;;;;25.56;33.89;98208.34;4928559;28;20493;-81